createdAt,value
2022-09-24T00:01:53.777Z,2.65
2022-09-24T00:05:19.835Z,3.03
2022-09-24T00:08:43.009Z,4.80
2022-09-24T00:11:54.371Z,3.72
2022-09-24T00:14:57.965Z,3.65
2022-09-24T00:18:10.073Z,7.57
2022-09-24T00:21:25.005Z,3.63
2022-09-24T00:24:59.655Z,2.38
2022-09-24T00:28:38.350Z,5.78
2022-09-24T00:31:53.175Z,3.55
2022-09-24T00:34:57.169Z,5.70
2022-09-24T00:38:00.505Z,4.30
2022-09-24T00:41:04.732Z,4.30
2022-09-24T00:44:36.156Z,6.25
2022-09-24T00:47:41.832Z,2.95
2022-09-24T00:50:45.436Z,4.80
2022-09-24T00:53:52.889Z,6.72
2022-09-24T00:56:59.580Z,10.43
2022-09-24T01:00:03.638Z,11.95
2022-09-24T01:03:16.062Z,9.63
2022-09-24T01:06:19.753Z,5.40
2022-09-24T01:09:26.669Z,7.45
2022-09-24T01:12:48.089Z,3.85
2022-09-24T01:16:10.633Z,4.43
2022-09-24T01:19:50.182Z,3.17
2022-09-24T01:23:03.993Z,3.00
2022-09-24T01:26:26.738Z,1.88
2022-09-24T01:29:42.527Z,5.18
2022-09-24T01:32:50.408Z,4.25
2022-09-24T01:35:58.129Z,5.47
2022-09-24T01:39:03.855Z,2.70
2022-09-24T01:42:11.070Z,4.60
2022-09-24T01:48:22.439Z,7.13
2022-09-24T01:54:55.742Z,3.10
2022-09-24T01:58:24.275Z,3.08
2022-09-24T02:01:38.625Z,6.88
2022-09-24T02:04:48.191Z,7.57
2022-09-24T02:07:59.871Z,3.13
2022-09-24T02:11:16.595Z,11.07
2022-09-24T02:14:21.167Z,6.68
2022-09-24T02:17:28.106Z,6.32
2022-09-24T02:20:32.639Z,4.93
2022-09-24T02:23:39.347Z,3.47
2022-09-24T02:26:43.843Z,8.15
2022-09-24T02:29:47.249Z,2.85
2022-09-24T02:32:53.580Z,3.72
2022-09-24T02:35:58.010Z,3.83
2022-09-24T02:42:11.514Z,1.65
2022-09-24T02:45:15.741Z,2.50
2022-09-24T02:48:20.495Z,6.03
2022-09-24T02:51:25.244Z,2.58
2022-09-24T02:54:29.268Z,2.22
2022-09-24T02:57:34.488Z,4.82
2022-09-24T03:00:39.120Z,4.78
2022-09-24T03:03:50.236Z,5.43
2022-09-24T03:06:54.827Z,1.83
2022-09-24T03:10:00.985Z,2.15
2022-09-24T03:13:04.915Z,1.27
2022-09-24T03:16:09.871Z,4.97
2022-09-24T03:19:13.996Z,3.15
2022-09-24T03:22:18.130Z,4.70
2022-09-24T03:25:26.426Z,2.70
2022-09-24T03:28:31.085Z,3.67
2022-09-24T03:31:35.157Z,3.60
2022-09-24T03:34:39.073Z,2.67
2022-09-24T03:37:48.384Z,4.35
2022-09-24T03:40:53.471Z,3.92
2022-09-24T03:43:57.630Z,3.97
2022-09-24T03:47:02.344Z,5.85
2022-09-24T03:50:06.534Z,3.75
2022-09-24T03:53:11.222Z,3.75
2022-09-24T03:56:15.539Z,4.32
2022-09-24T03:59:19.031Z,2.67
2022-09-24T04:02:22.191Z,2.97
2022-09-24T04:05:25.729Z,5.78
2022-09-24T04:08:29.202Z,9.52
2022-09-24T04:11:36.096Z,4.32
2022-09-24T04:14:39.383Z,3.17
2022-09-24T04:17:43.546Z,3.20
2022-09-24T04:20:47.528Z,6.50
2022-09-24T04:23:51.484Z,1.75
2022-09-24T04:26:55.041Z,4.00
2022-09-24T04:29:59.051Z,2.42
2022-09-24T04:33:03.525Z,1.55
2022-09-24T04:36:07.573Z,6.88
2022-09-24T04:39:11.940Z,2.78
2022-09-24T04:42:19.908Z,4.20
2022-09-24T04:45:25.395Z,2.45
2022-09-24T04:48:29.789Z,3.33
2022-09-24T04:51:34.787Z,4.18
2022-09-24T04:54:38.633Z,4.93
2022-09-24T04:57:42.185Z,2.83
2022-09-24T05:00:46.267Z,2.40
2022-09-24T05:03:50.326Z,3.13
2022-09-24T05:06:54.017Z,1.65
2022-09-24T05:09:58.045Z,0.98
2022-09-24T05:13:03.096Z,1.83
2022-09-24T05:16:06.904Z,0.52
2022-09-24T05:19:11.134Z,0.88
2022-09-24T05:22:14.768Z,1.50
2022-09-24T05:25:20.712Z,4.35
2022-09-24T05:28:24.498Z,1.42
2022-09-24T05:31:29.188Z,0.95
2022-09-24T05:34:33.816Z,1.65
2022-09-24T05:37:39.308Z,2.70
2022-09-24T05:40:49.683Z,1.23
2022-09-24T05:43:53.548Z,1.58
2022-09-24T05:46:56.892Z,0.90
2022-09-24T05:50:00.561Z,1.95
2022-09-24T05:53:06.153Z,1.13
2022-09-24T05:56:11.622Z,2.28
2022-09-24T05:59:15.353Z,2.25
2022-09-24T06:02:19.394Z,3.70
2022-09-24T06:05:23.942Z,1.38
2022-09-24T06:08:27.802Z,3.53
2022-09-24T06:11:40.375Z,2.50
2022-09-24T06:14:44.910Z,2.75
2022-09-24T06:17:48.628Z,1.42
2022-09-24T06:20:52.769Z,1.20
2022-09-24T06:23:56.446Z,2.42
2022-09-24T06:27:00.826Z,2.60
2022-09-24T06:30:05.672Z,2.40
2022-09-24T06:33:15.486Z,3.22
2022-09-24T06:36:20.026Z,1.17
2022-09-24T06:39:27.701Z,2.17
2022-09-24T06:42:31.567Z,2.83
2022-09-24T06:45:36.716Z,5.10
2022-09-24T06:48:40.680Z,4.93
2022-09-24T06:51:44.642Z,1.73
2022-09-24T06:54:48.484Z,3.38
2022-09-24T06:57:52.187Z,1.88
2022-09-24T07:01:02.212Z,2.22
2022-09-24T07:04:05.772Z,2.13
2022-09-24T07:07:28.196Z,4.97
2022-09-24T07:10:31.909Z,2.92
2022-09-24T07:13:36.196Z,3.72
2022-09-24T07:16:40.167Z,1.10
2022-09-24T07:19:43.517Z,0.93
2022-09-24T07:22:47.076Z,1.73
2022-09-24T07:25:55.839Z,0.80
2022-09-24T07:28:58.774Z,9.18
2022-09-24T07:32:04.152Z,3.45
2022-09-24T07:35:07.880Z,1.77
2022-09-24T07:38:13.153Z,4.72
2022-09-24T07:41:18.823Z,3.47
2022-09-24T07:44:26.582Z,1.50
2022-09-24T07:47:30.070Z,1.42
2022-09-24T07:50:36.099Z,1.10
2022-09-24T07:53:39.807Z,2.20
2022-09-24T07:56:44.132Z,9.30
2022-09-24T07:59:47.859Z,7.70
2022-09-24T08:02:54.840Z,18.98
2022-09-24T08:06:00.493Z,10.15
2022-09-24T08:09:05.422Z,3.22
2022-09-24T08:12:10.125Z,2.58
2022-09-24T08:15:14.217Z,3.45
2022-09-24T08:18:17.844Z,5.45
2022-09-24T08:21:24.088Z,5.35
2022-09-24T08:24:27.717Z,0.80
2022-09-24T08:27:33.797Z,3.53
2022-09-24T08:30:37.671Z,3.22
2022-09-24T08:33:41.873Z,1.95
2022-09-24T08:36:45.562Z,3.00
2022-09-24T08:39:49.862Z,1.15
2022-09-24T08:43:38.568Z,3.33
2022-09-24T08:47:09.692Z,3.75
2022-09-24T08:50:33.586Z,2.40
2022-09-24T08:53:56.581Z,3.90
2022-09-24T08:57:03.858Z,0.82
2022-09-24T09:00:08.525Z,5.63
2022-09-24T09:03:32.082Z,2.58
2022-09-24T09:07:06.317Z,3.53
2022-09-24T09:10:17.087Z,5.82
2022-09-24T09:13:30.092Z,6.07
2022-09-24T09:16:54.130Z,4.90
2022-09-24T09:20:02.157Z,2.67
2022-09-24T09:23:29.010Z,2.83
2022-09-24T09:26:32.862Z,1.50
2022-09-24T09:29:37.293Z,3.15
2022-09-24T09:33:09.040Z,4.53
2022-09-24T09:36:37.892Z,4.53
2022-09-24T09:39:46.631Z,2.72
2022-09-24T09:42:50.204Z,3.47
2022-09-24T09:46:19.297Z,3.17
2022-09-24T09:49:23.973Z,3.08
2022-09-24T09:52:30.798Z,2.63
2022-09-24T09:58:46.570Z,4.65
2022-09-24T10:01:56.600Z,2.55
2022-09-24T10:05:03.568Z,4.50
2022-09-24T10:08:20.435Z,10.43
2022-09-24T10:11:24.430Z,14.07
2022-09-24T10:14:27.664Z,12.88
2022-09-24T10:17:40.058Z,17.55
2022-09-24T10:20:48.808Z,22.00
2022-09-24T10:23:52.573Z,14.57
2022-09-24T10:26:56.540Z,12.75
2022-09-24T10:30:30.895Z,13.73
2022-09-24T10:33:43.409Z,16.65
2022-09-24T10:36:57.905Z,20.58
2022-09-24T10:40:14.497Z,17.98
2022-09-24T10:43:21.097Z,9.65
2022-09-24T10:47:08.620Z,16.93
2022-09-24T10:50:41.214Z,12.48
2022-09-24T10:53:51.920Z,9.73
2022-09-24T10:56:58.454Z,11.50
2022-09-24T11:00:13.634Z,14.57
2022-09-24T11:03:47.154Z,36.42
2022-09-24T11:07:18.639Z,28.67
2022-09-24T11:10:54.184Z,37.15
2022-09-24T11:14:13.156Z,21.10
2022-09-24T11:17:34.198Z,23.90
2022-09-24T11:20:51.549Z,28.00
2022-09-24T11:24:14.711Z,20.25
2022-09-24T11:27:35.573Z,18.27
2022-09-24T11:30:57.469Z,22.80
2022-09-24T11:34:29.363Z,34.85
2022-09-24T11:37:40.528Z,27.55
2022-09-24T11:41:17.504Z,19.00
2022-09-24T11:44:51.675Z,24.38
2022-09-24T11:48:12.556Z,26.33
2022-09-24T11:51:55.388Z,26.98
2022-09-24T11:55:05.562Z,31.70
2022-09-24T11:58:35.318Z,18.60
2022-09-24T12:01:47.840Z,16.00
2022-09-24T12:05:03.565Z,20.52
2022-09-24T12:08:19.330Z,16.17
2022-09-24T12:11:59.265Z,23.23
2022-09-24T12:15:06.644Z,55.28
2022-09-24T12:18:28.751Z,80.40
2022-09-24T12:21:41.653Z,47.05
2022-09-24T12:24:59.391Z,65.65
2022-09-24T12:28:03.484Z,72.40
2022-09-24T12:32:02.141Z,92.35
2022-09-24T12:35:28.993Z,31.23
2022-09-24T12:39:05.429Z,4.13
2022-09-24T12:42:11.990Z,7.45
2022-09-24T12:45:19.473Z,20.35
2022-09-24T12:48:26.477Z,19.65
2022-09-24T12:51:39.543Z,23.50
2022-09-24T12:54:45.119Z,12.80
2022-09-24T12:57:55.850Z,11.63
2022-09-24T13:01:16.367Z,23.60
2022-09-24T13:04:20.484Z,35.17
2022-09-24T13:07:41.638Z,19.40
2022-09-24T13:11:29.868Z,25.30
2022-09-24T13:14:35.620Z,20.50
2022-09-24T13:17:39.194Z,22.80
2022-09-24T13:20:49.992Z,32.03
2022-09-24T13:23:54.819Z,34.35
2022-09-24T13:27:22.404Z,25.85
2022-09-24T13:30:31.701Z,22.10
2022-09-24T13:33:43.615Z,12.68
2022-09-24T13:37:05.245Z,16.05
2022-09-24T13:40:19.224Z,11.27
2022-09-24T13:43:31.459Z,13.90
2022-09-24T13:46:36.150Z,18.88
2022-09-24T13:49:53.052Z,24.85
2022-09-24T13:53:08.033Z,35.97
2022-09-24T13:56:16.549Z,26.92
2022-09-24T13:59:19.413Z,29.92
2022-09-24T14:02:27.688Z,22.33
2022-09-24T14:05:37.953Z,21.73
2022-09-24T14:08:47.096Z,21.67
2022-09-24T14:11:52.909Z,19.40
2022-09-24T14:14:58.969Z,20.45
2022-09-24T14:18:10.594Z,19.17
2022-09-24T14:21:32.482Z,18.30
2022-09-24T14:24:43.947Z,14.02
2022-09-24T14:27:50.396Z,20.13
2022-09-24T14:30:56.790Z,15.35
2022-09-24T14:34:04.185Z,22.73
2022-09-24T14:40:19.549Z,15.48
2022-09-24T14:43:32.054Z,16.05
2022-09-24T14:46:49.200Z,17.05
2022-09-24T14:49:55.559Z,16.25
2022-09-24T14:53:01.176Z,15.40
2022-09-24T14:56:37.992Z,12.55
2022-09-24T14:59:42.318Z,16.77
2022-09-24T15:02:51.697Z,14.65
2022-09-24T15:06:07.055Z,16.40
2022-09-24T15:09:27.112Z,16.77
2022-09-24T15:12:38.483Z,17.27
2022-09-24T15:15:43.001Z,16.77
2022-09-24T15:19:11.693Z,20.35
2022-09-24T15:22:16.063Z,15.57
2022-09-24T15:25:19.668Z,15.18
2022-09-24T15:28:28.006Z,22.45
2022-09-24T15:31:32.039Z,14.32
2022-09-24T15:34:36.023Z,11.30
2022-09-24T15:37:40.354Z,13.15
2022-09-24T15:40:45.470Z,15.45
2022-09-24T15:43:49.113Z,11.15
2022-09-24T15:46:53.610Z,11.20
2022-09-24T15:49:58.165Z,13.48
2022-09-24T15:53:02.745Z,11.80
2022-09-24T15:56:06.506Z,11.57
2022-09-24T15:59:15.030Z,8.25
2022-09-24T16:02:20.173Z,7.72
2022-09-24T16:05:24.671Z,9.65
2022-09-24T16:08:28.575Z,10.20
2022-09-24T16:11:32.557Z,14.18
2022-09-24T16:14:36.462Z,15.73
2022-09-24T16:17:39.826Z,10.63
2022-09-24T16:20:45.718Z,13.13
2022-09-24T16:23:55.093Z,10.55
2022-09-24T16:27:00.122Z,3.92
2022-09-24T16:30:06.802Z,6.38
2022-09-24T16:33:10.753Z,12.45
2022-09-24T16:36:14.649Z,12.73
2022-09-24T16:39:18.813Z,12.68
2022-09-24T16:42:22.551Z,8.50
2022-09-24T16:45:26.616Z,12.88
2022-09-24T16:48:31.226Z,15.88
2022-09-24T16:51:35.341Z,14.52
2022-09-24T16:54:39.121Z,18.90
2022-09-24T16:57:42.961Z,16.73
2022-09-24T17:00:46.970Z,9.38
2022-09-24T17:03:58.675Z,6.55
2022-09-24T17:07:02.543Z,3.95
2022-09-24T17:10:16.390Z,1.83
2022-09-24T17:13:19.964Z,1.35
2022-09-24T17:16:25.723Z,1.42
2022-09-24T17:19:29.570Z,1.88
2022-09-24T17:22:32.996Z,2.17
2022-09-24T17:25:36.063Z,1.55
2022-09-24T17:28:41.870Z,2.10
2022-09-24T17:31:45.450Z,0.60
2022-09-24T17:34:49.848Z,1.50
2022-09-24T17:37:52.748Z,1.42
2022-09-24T17:41:00.074Z,2.33
2022-09-24T17:47:08.660Z,1.30
2022-09-24T17:50:12.316Z,2.63
2022-09-24T17:53:16.279Z,0.63
2022-09-24T17:56:22.281Z,0.73
2022-09-24T17:59:27.164Z,0.95
2022-09-24T18:02:30.963Z,0.90
2022-09-24T18:05:34.921Z,1.45
2022-09-24T18:08:42.967Z,3.10
2022-09-24T18:11:51.199Z,1.60
2022-09-24T18:14:55.018Z,1.10
2022-09-24T18:17:59.151Z,1.75
2022-09-24T18:21:04.479Z,0.80
2022-09-24T18:24:08.508Z,3.83
2022-09-24T18:27:15.818Z,6.07
2022-09-24T18:30:19.740Z,13.63
2022-09-24T18:33:25.683Z,11.55
2022-09-24T18:36:29.723Z,3.65
2022-09-24T18:39:33.275Z,1.98
2022-09-24T18:42:37.740Z,4.88
2022-09-24T18:45:40.875Z,1.35
2022-09-24T18:48:48.011Z,1.35
2022-09-24T18:51:52.690Z,3.05
2022-09-24T18:54:57.748Z,0.88
2022-09-24T18:58:00.923Z,1.17
2022-09-24T19:01:09.769Z,1.80
2022-09-24T19:04:14.811Z,1.08
2022-09-24T19:07:18.823Z,1.77
2022-09-24T19:10:22.417Z,2.33
2022-09-24T19:13:27.720Z,3.58
2022-09-24T19:16:32.032Z,2.15
2022-09-24T19:19:35.711Z,2.33
2022-09-24T19:22:39.361Z,3.17
2022-09-24T19:25:43.793Z,1.25
2022-09-24T19:28:52.965Z,1.38
2022-09-24T19:31:56.772Z,2.05
2022-09-24T19:35:00.531Z,3.42
2022-09-24T19:38:05.223Z,0.85
2022-09-24T19:41:21.793Z,2.13
2022-09-24T19:44:25.247Z,1.65
2022-09-24T19:47:29.696Z,3.13
2022-09-24T19:50:35.228Z,3.55
2022-09-24T19:53:38.979Z,2.83
2022-09-24T19:56:43.214Z,1.95
2022-09-24T19:59:47.063Z,3.92
2022-09-24T20:02:51.806Z,5.18
2022-09-24T20:05:55.487Z,6.63
2022-09-24T20:09:00.172Z,2.03
2022-09-24T20:12:05.071Z,5.45
2022-09-24T20:15:09.705Z,2.78
2022-09-24T20:18:13.422Z,2.95
2022-09-24T20:21:19.238Z,2.28
2022-09-24T20:24:23.310Z,4.07
2022-09-24T20:27:45.966Z,0.82
2022-09-24T20:30:49.553Z,1.02
2022-09-24T20:33:53.685Z,1.48
2022-09-24T20:37:02.084Z,1.33
2022-09-24T20:40:07.761Z,1.27
2022-09-24T20:43:11.260Z,0.68
2022-09-24T20:46:22.345Z,0.50
2022-09-24T20:49:27.328Z,1.20
2022-09-24T20:52:33.937Z,4.90
2022-09-24T20:55:40.297Z,18.33
2022-09-24T20:58:44.246Z,6.38
2022-09-24T21:01:48.701Z,8.40
2022-09-24T21:04:53.317Z,9.38
2022-09-24T21:07:57.407Z,9.00
2022-09-24T21:11:07.087Z,6.63
2022-09-24T21:14:12.467Z,3.78
2022-09-24T21:17:15.770Z,2.38
2022-09-24T21:20:18.742Z,2.33
2022-09-24T21:23:22.999Z,1.20
2022-09-24T21:26:29.328Z,5.35
2022-09-24T21:29:33.733Z,1.42
2022-09-24T21:32:39.352Z,1.33
2022-09-24T21:35:43.292Z,3.65
2022-09-24T21:39:01.873Z,3.60
2022-09-24T21:42:05.937Z,6.53
2022-09-24T21:45:09.873Z,3.83
2022-09-24T21:48:14.346Z,1.83
2022-09-24T21:51:21.747Z,0.82
2022-09-24T21:54:24.894Z,0.38
2022-09-24T21:57:28.476Z,0.95
2022-09-24T22:00:32.324Z,0.82
2022-09-24T22:03:35.786Z,2.42
2022-09-24T22:06:39.516Z,1.48
2022-09-24T22:09:43.387Z,3.08
2022-09-24T22:12:47.715Z,1.10
2022-09-24T22:15:52.138Z,1.13
2022-09-24T22:18:56.190Z,2.83
2022-09-24T22:21:59.730Z,2.47
2022-09-24T22:25:03.591Z,4.85
2022-09-24T22:28:07.185Z,9.65
2022-09-24T22:31:14.359Z,1.85
2022-09-24T22:34:36.486Z,6.35
2022-09-24T22:37:40.803Z,1.55
2022-09-24T22:40:45.232Z,0.93
2022-09-24T22:43:49.509Z,0.47
2022-09-24T22:46:53.198Z,0.45
2022-09-24T22:49:57.365Z,5.40
2022-09-24T22:53:02.513Z,6.15
2022-09-24T22:56:18.640Z,3.85
2022-09-24T22:59:21.812Z,4.65
2022-09-24T23:02:25.484Z,6.85
2022-09-24T23:05:30.730Z,1.30
2022-09-24T23:08:37.058Z,2.28
2022-09-24T23:11:40.385Z,4.22
2022-09-24T23:14:43.386Z,1.02
2022-09-24T23:17:48.371Z,0.90
2022-09-24T23:20:51.487Z,2.17
2022-09-24T23:23:56.800Z,3.70
2022-09-24T23:27:01.130Z,3.97
2022-09-24T23:30:04.965Z,1.60
2022-09-24T23:33:08.824Z,3.72
2022-09-24T23:36:13.883Z,3.78
2022-09-24T23:39:19.650Z,4.97
2022-09-24T23:42:24.162Z,1.15
2022-09-24T23:45:28.334Z,2.15
2022-09-24T23:48:32.464Z,0.38
2022-09-24T23:51:36.610Z,1.38
2022-09-24T23:54:40.971Z,1.27
2022-09-24T23:57:44.945Z,1.75
